Time;durP1;ratioP1;P1;durP2;ratioP2;P2;SDS_P1;SDS_P2;PMS_P1;PMS_P2;Temp;Humidity;BMP_temperature;BMP_pressure;BME280_temperature;BME280_humidity;BME280_pressure;Samples;Min_cycle;Max_cycle;Signal;HPM_P1;HPM_P2
2020/12/05 00:01:56;;;;;;;;;;;0.90;99.90;;;;;;5049157;28;20012;-76
2020/12/05 00:04:21;;;;;;;;;;;0.90;99.90;;;;;;5048991;28;19921;-75
2020/12/05 00:06:48;;;;;;;;;;;0.90;99.90;;;;;;5033814;28;19924;-75
2020/12/05 00:09:13;;;;;;;;;;;1.00;99.90;;;;;;5049069;28;19925;-76
2020/12/05 00:11:39;;;;;;;;;;;1.00;99.90;;;;;;5029408;28;19917;-75
2020/12/05 00:14:05;;;;;;;;;;;1.00;99.90;;;;;;5030709;28;20376;-75
2020/12/05 00:16:30;;;;;;;;;;;0.90;99.90;;;;;;5049004;28;19917;-75
2020/12/05 00:18:56;;;;;;;;;;;0.90;99.90;;;;;;5048957;28;19967;-75
2020/12/05 00:21:22;;;;;;;;;;;0.90;99.90;;;;;;5048986;28;19917;-75
2020/12/05 00:23:49;;;;;;;;;;;1.00;99.90;;;;;;5048396;28;19917;-75
2020/12/05 00:26:15;;;;;;;;;;;1.10;99.90;;;;;;5043963;28;20019;-74
2020/12/05 00:28:40;;;;;;;;;;;1.10;99.90;;;;;;5023305;28;19921;-75
2020/12/05 00:31:06;;;;;;;;;;;1.10;99.90;;;;;;5048948;28;19924;-75
2020/12/05 00:33:32;;;;;;;;;;;1.10;99.90;;;;;;5032289;28;20373;-75
2020/12/05 00:35:58;;;;;;;;;;;1.10;99.90;;;;;;5032359;28;20008;-75
2020/12/05 00:38:23;;;;;;;;;;;1.00;99.90;;;;;;5032186;28;19917;-75
2020/12/05 00:40:50;;;;;;;;;;;0.90;99.90;;;;;;5048864;28;19924;-75
2020/12/05 00:43:15;;;;;;;;;;;1.00;99.90;;;;;;5033409;28;19920;-75
2020/12/05 00:45:41;;;;;;;;;;;1.00;99.90;;;;;;5048758;28;19921;-75
2020/12/05 00:48:07;;;;;;;;;;;1.00;99.90;;;;;;5048894;28;19920;-75
2020/12/05 00:50:36;;;;;;;;;;;1.00;99.90;;;;;;5033351;28;19917;-75
2020/12/05 00:53:01;;;;;;;;;;;1.00;99.90;;;;;;5033491;28;19921;-75
2020/12/05 00:55:27;;;;;;;;;;;1.00;99.90;;;;;;5048667;28;20391;-75
2020/12/05 00:57:53;;;;;;;;;;;1.00;99.90;;;;;;5033705;28;19943;-75
2020/12/05 01:00:19;;;;;;;;;;;1.00;99.90;;;;;;5033322;28;20365;-74
2020/12/05 01:02:45;;;;;;;;;;;1.10;99.90;;;;;;5048509;28;19975;-75
2020/12/05 01:05:11;;;;;;;;;;;1.10;99.90;;;;;;5033358;28;19921;-75
2020/12/05 01:07:37;;;;;;;;;;;1.10;99.90;;;;;;5033993;28;19920;-75
2020/12/05 01:10:03;;;;;;;;;;;1.20;99.90;;;;;;5035809;28;19924;-75
2020/12/05 01:12:30;;;;;;;;;;;1.20;99.90;;;;;;5036856;28;19921;-75
2020/12/05 01:15:01;;;;;;;;;;;1.20;99.90;;;;;;5052318;28;19949;-75
2020/12/05 01:17:26;;;;;;;;;;;1.20;99.90;;;;;;5052286;28;19928;-75
2020/12/05 01:19:52;;;;;;;;;;;1.20;99.90;;;;;;5052146;28;19917;-75
2020/12/05 01:22:18;;;;;;;;;;;1.20;99.90;;;;;;5036722;28;19982;-75
2020/12/05 01:24:46;;;;;;;;;;;1.20;99.90;;;;;;5052032;28;19925;-75
2020/12/05 01:27:12;;;;;;;;;;;1.30;99.90;;;;;;5052186;28;19991;-75
2020/12/05 01:29:38;;;;;;;;;;;1.20;99.90;;;;;;5035304;28;19921;-75
2020/12/05 01:32:04;;;;;;;;;;;1.10;99.90;;;;;;5051932;28;19917;-75
2020/12/05 01:34:30;;;;;;;;;;;1.00;99.90;;;;;;5035387;28;19928;-75
2020/12/05 01:36:55;;;;;;;;;;;1.10;99.90;;;;;;5036408;28;19917;-75
2020/12/05 01:39:21;;;;;;;;;;;1.10;99.90;;;;;;5036766;28;19923;-75
2020/12/05 01:41:47;;;;;;;;;;;1.00;99.90;;;;;;5051747;28;20299;-75
2020/12/05 01:44:12;;;;;;;;;;;1.00;99.90;;;;;;5035149;28;19983;-75
2020/12/05 01:46:39;;;;;;;;;;;1.20;99.90;;;;;;5035087;28;19921;-75
2020/12/05 01:49:06;;;;;;;;;;;1.10;99.90;;;;;;5035056;28;20343;-76
2020/12/05 01:51:32;;;;;;;;;;;1.10;99.90;;;;;;5035116;28;19921;-75
2020/12/05 01:53:58;;;;;;;;;;;1.20;99.90;;;;;;5051429;28;19963;-75
2020/12/05 01:56:24;;;;;;;;;;;1.20;99.90;;;;;;5052201;28;20443;-75
2020/12/05 01:58:49;;;;;;;;;;;1.20;99.90;;;;;;5034765;28;19944;-75
2020/12/05 02:01:19;;;;;;;;;;;1.20;99.90;;;;;;5051939;28;20020;-75
2020/12/05 02:03:45;;;;;;;;;;;1.20;99.90;;;;;;5050019;28;20016;-76
2020/12/05 02:06:14;;;;;;;;;;;1.30;99.90;;;;;;5051331;28;20428;-75
2020/12/05 02:08:48;;;;;;;;;;;1.20;99.90;;;;;;5051353;28;19948;-76
2020/12/05 02:11:15;;;;;;;;;;;1.20;99.90;;;;;;5051276;28;20369;-75
2020/12/05 02:13:43;;;;;;;;;;;1.20;99.90;;;;;;5051045;28;20296;-76
2020/12/05 02:16:09;;;;;;;;;;;1.30;99.90;;;;;;5051214;28;19921;-76
2020/12/05 02:18:36;;;;;;;;;;;1.20;99.90;;;;;;5050010;28;19924;-75
2020/12/05 02:21:04;;;;;;;;;;;1.20;99.90;;;;;;5050843;28;19924;-76
2020/12/05 02:23:31;;;;;;;;;;;1.20;99.90;;;;;;5050990;28;19939;-75
2020/12/05 02:25:59;;;;;;;;;;;1.30;99.90;;;;;;5050834;28;19967;-75
2020/12/05 02:28:25;;;;;;;;;;;1.20;99.90;;;;;;5051056;28;19916;-75
2020/12/05 02:30:51;;;;;;;;;;;1.20;99.90;;;;;;5035298;28;19917;-75
2020/12/05 02:33:17;;;;;;;;;;;1.20;99.90;;;;;;5034103;28;20380;-76
2020/12/05 02:35:43;;;;;;;;;;;1.30;99.90;;;;;;5050749;28;20012;-75
2020/12/05 02:38:14;;;;;;;;;;;1.20;99.90;;;;;;5050489;28;20396;-75
2020/12/05 02:40:40;;;;;;;;;;;1.30;99.90;;;;;;5034100;28;19921;-75
2020/12/05 02:43:06;;;;;;;;;;;1.30;99.90;;;;;;5034037;28;19952;-75
2020/12/05 02:45:32;;;;;;;;;;;1.30;99.90;;;;;;5050409;28;20388;-75
2020/12/05 02:47:58;;;;;;;;;;;1.30;99.90;;;;;;5050602;28;19917;-75
2020/12/05 02:50:23;;;;;;;;;;;1.20;99.90;;;;;;5050433;28;19970;-75
2020/12/05 02:52:49;;;;;;;;;;;1.20;99.90;;;;;;5050518;28;20000;-76
2020/12/05 02:55:15;;;;;;;;;;;1.20;99.90;;;;;;5034950;28;20357;-75
2020/12/05 02:57:41;;;;;;;;;;;1.20;99.90;;;;;;5035067;28;19927;-75
2020/12/05 03:00:07;;;;;;;;;;;1.10;99.90;;;;;;5050362;28;19967;-75
2020/12/05 03:02:32;;;;;;;;;;;1.00;99.90;;;;;;5033433;28;19925;-75
2020/12/05 03:04:58;;;;;;;;;;;1.00;99.90;;;;;;5050213;28;20118;-75
2020/12/05 03:07:24;;;;;;;;;;;1.10;99.90;;;;;;5050116;28;19959;-76
2020/12/05 03:09:49;;;;;;;;;;;1.10;99.90;;;;;;5050182;28;19924;-75
2020/12/05 03:12:15;;;;;;;;;;;1.20;99.90;;;;;;5050053;28;20276;-76
2020/12/05 03:14:42;;;;;;;;;;;1.20;99.90;;;;;;5050120;28;19917;-76
2020/12/05 03:17:07;;;;;;;;;;;1.10;99.90;;;;;;5033568;28;19921;-76
2020/12/05 03:19:33;;;;;;;;;;;1.10;99.90;;;;;;5049903;28;20288;-75
2020/12/05 03:21:58;;;;;;;;;;;1.00;99.90;;;;;;5031256;28;19921;-76
2020/12/05 03:24:24;;;;;;;;;;;1.00;99.90;;;;;;5049872;28;20292;-76
2020/12/05 03:26:52;;;;;;;;;;;1.00;99.90;;;;;;5034403;28;20364;-76
2020/12/05 03:29:18;;;;;;;;;;;1.10;99.90;;;;;;5049699;28;19917;-75
2020/12/05 03:34:10;;;;;;;;;;;1.10;99.90;;;;;;5034373;28;19921;-75
2020/12/05 03:36:36;;;;;;;;;;;1.10;99.90;;;;;;5049842;28;20403;-75
2020/12/05 03:39:01;;;;;;;;;;;1.10;99.90;;;;;;5049482;28;19925;-75
2020/12/05 03:41:27;;;;;;;;;;;1.20;99.90;;;;;;5049763;28;19917;-75
2020/12/05 03:43:53;;;;;;;;;;;1.20;99.90;;;;;;5049537;28;20423;-76
2020/12/05 03:46:18;;;;;;;;;;;1.20;99.90;;;;;;5049699;28;19971;-75
2020/12/05 03:48:45;;;;;;;;;;;1.20;99.90;;;;;;5049585;28;19955;-76
2020/12/05 03:51:11;;;;;;;;;;;1.20;99.90;;;;;;5034037;28;19983;-76
2020/12/05 03:53:36;;;;;;;;;;;1.20;99.90;;;;;;5049845;28;20369;-76
2020/12/05 03:56:02;;;;;;;;;;;1.20;99.90;;;;;;5035311;28;19917;-76
2020/12/05 03:58:28;;;;;;;;;;;1.10;99.90;;;;;;5049064;28;20293;-76
2020/12/05 04:00:53;;;;;;;;;;;1.20;99.90;;;;;;5029471;28;20013;-78
2020/12/05 04:03:21;;;;;;;;;;;1.20;99.90;;;;;;5049421;28;20300;-76
2020/12/05 04:05:47;;;;;;;;;;;1.10;99.90;;;;;;5049323;28;19921;-75
2020/12/05 04:08:13;;;;;;;;;;;1.20;99.90;;;;;;5049240;28;19925;-76
2020/12/05 04:10:39;;;;;;;;;;;1.10;99.90;;;;;;5049301;28;20312;-76
2020/12/05 04:13:04;;;;;;;;;;;1.20;99.90;;;;;;5049105;28;19917;-76
2020/12/05 04:15:30;;;;;;;;;;;1.20;99.90;;;;;;5034000;28;19917;-76
2020/12/05 04:17:55;;;;;;;;;;;1.20;99.90;;;;;;5032526;28;19917;-76
2020/12/05 04:20:21;;;;;;;;;;;1.20;99.90;;;;;;5049303;28;19917;-76
2020/12/05 04:22:48;;;;;;;;;;;1.20;99.90;;;;;;5049205;28;20436;-76
2020/12/05 04:25:13;;;;;;;;;;;1.20;99.90;;;;;;5048979;28;20372;-76
2020/12/05 04:27:39;;;;;;;;;;;1.30;99.90;;;;;;5048404;28;19920;-76
2020/12/05 04:30:05;;;;;;;;;;;1.30;99.90;;;;;;5048789;28;19917;-76
2020/12/05 04:32:30;;;;;;;;;;;1.30;99.90;;;;;;5046317;28;19917;-76
2020/12/05 04:34:59;;;;;;;;;;;1.40;99.90;;;;;;5032039;28;19917;-76
2020/12/05 04:37:25;;;;;;;;;;;1.30;99.90;;;;;;5048593;28;20377;-76
2020/12/05 04:39:52;;;;;;;;;;;1.30;99.90;;;;;;5047910;28;19953;-76
2020/12/05 04:42:20;;;;;;;;;;;1.30;99.90;;;;;;5050147;28;20004;-76
2020/12/05 04:44:46;;;;;;;;;;;1.30;99.90;;;;;;5051294;28;20284;-77
2020/12/05 04:47:14;;;;;;;;;;;1.30;99.90;;;;;;5035496;28;19924;-77
2020/12/05 04:49:40;;;;;;;;;;;1.20;99.90;;;;;;5049910;28;20004;-77
2020/12/05 04:52:14;;;;;;;;;;;1.10;99.90;;;;;;5052620;28;19948;-78
2020/12/05 04:54:41;;;;;;;;;;;1.10;99.90;;;;;;5037938;28;19921;-77
2020/12/05 04:57:08;;;;;;;;;;;1.10;99.90;;;;;;5052971;28;20372;-77
2020/12/05 04:59:33;;;;;;;;;;;1.10;99.90;;;;;;5052850;28;19921;-76
2020/12/05 05:02:02;;;;;;;;;;;1.20;99.90;;;;;;5049858;28;19923;-77
2020/12/05 05:04:28;;;;;;;;;;;1.20;99.90;;;;;;5047639;28;19991;-78
2020/12/05 05:07:02;;;;;;;;;;;1.20;99.90;;;;;;5033929;28;19916;-77
2020/12/05 05:09:28;;;;;;;;;;;1.30;99.90;;;;;;5035798;28;19945;-78
2020/12/05 05:11:54;;;;;;;;;;;1.20;99.90;;;;;;5034035;28;19922;-77
2020/12/05 05:14:30;;;;;;;;;;;1.20;99.90;;;;;;5047972;28;19917;-77
2020/12/05 05:17:02;;;;;;;;;;;1.20;99.90;;;;;;5049823;28;19928;-77
2020/12/05 05:19:28;;;;;;;;;;;1.10;99.90;;;;;;5029961;28;19971;-77
2020/12/05 05:21:53;;;;;;;;;;;1.10;99.90;;;;;;5035371;28;19917;-77
2020/12/05 05:24:19;;;;;;;;;;;1.20;99.90;;;;;;5051937;28;19975;-77
2020/12/05 05:26:58;;;;;;;;;;;1.20;99.90;;;;;;5033411;28;20372;-78
2020/12/05 05:29:25;;;;;;;;;;;1.20;99.90;;;;;;5051687;28;19917;-78
2020/12/05 05:31:59;;;;;;;;;;;1.20;99.90;;;;;;5051730;28;19929;-78
2020/12/05 05:34:25;;;;;;;;;;;1.20;99.90;;;;;;5052460;28;19955;-77
2020/12/05 05:36:51;;;;;;;;;;;1.20;99.90;;;;;;5050936;28;19960;-78
2020/12/05 05:39:17;;;;;;;;;;;1.20;99.90;;;;;;5052394;28;19921;-78
2020/12/05 05:41:47;;;;;;;;;;;1.10;99.90;;;;;;5049000;28;19939;-78
2020/12/05 05:44:14;;;;;;;;;;;1.10;99.90;;;;;;5051946;28;19956;-78
2020/12/05 05:46:44;;;;;;;;;;;1.10;99.90;;;;;;5051976;28;19921;-78
2020/12/05 05:49:10;;;;;;;;;;;1.10;99.90;;;;;;5052238;28;19975;-78
2020/12/05 05:51:37;;;;;;;;;;;1.20;99.90;;;;;;5041952;28;19918;-79
2020/12/05 05:54:13;;;;;;;;;;;1.10;99.90;;;;;;5051688;28;19957;-79
2020/12/05 05:56:51;;;;;;;;;;;1.10;99.90;;;;;;5051737;28;19921;-79
2020/12/05 05:59:17;;;;;;;;;;;1.00;99.90;;;;;;5048616;28;19967;-79
2020/12/05 06:01:45;;;;;;;;;;;1.00;99.90;;;;;;5036116;28;19924;-79
2020/12/05 06:04:13;;;;;;;;;;;1.10;99.90;;;;;;5051348;28;19971;-78
2020/12/05 06:06:39;;;;;;;;;;;1.00;99.90;;;;;;5034842;28;20020;-79
2020/12/05 06:09:05;;;;;;;;;;;1.00;99.90;;;;;;5051801;28;19955;-79
2020/12/05 06:11:31;;;;;;;;;;;1.00;99.90;;;;;;5051787;28;19917;-79
2020/12/05 06:13:58;;;;;;;;;;;0.90;99.90;;;;;;5044136;28;20016;-79
2020/12/05 06:16:23;;;;;;;;;;;0.90;99.90;;;;;;5033956;28;20299;-79
2020/12/05 06:18:51;;;;;;;;;;;0.90;99.90;;;;;;5036369;28;19995;-79
2020/12/05 06:21:16;;;;;;;;;;;0.90;99.90;;;;;;5051255;28;20335;-79
2020/12/05 06:23:45;;;;;;;;;;;1.00;99.90;;;;;;5051705;28;19917;-79
2020/12/05 06:26:14;;;;;;;;;;;1.00;99.90;;;;;;5051560;28;19982;-79
2020/12/05 06:28:43;;;;;;;;;;;0.90;99.90;;;;;;5051437;28;20011;-79
2020/12/05 06:31:09;;;;;;;;;;;0.90;99.90;;;;;;5036189;28;20261;-79
2020/12/05 06:33:41;;;;;;;;;;;1.00;99.90;;;;;;5045646;28;19918;-79
2020/12/05 06:36:37;;;;;;;;;;;1.00;99.90;;;;;;5051856;28;19952;-79
2020/12/05 06:39:10;;;;;;;;;;;0.90;99.90;;;;;;4959401;28;20450;-80
2020/12/05 06:41:36;;;;;;;;;;;0.80;99.90;;;;;;5019178;28;19921;-79
2020/12/05 06:44:09;;;;;;;;;;;0.80;99.90;;;;;;5051383;28;19917;-79
2020/12/05 06:46:47;;;;;;;;;;;0.90;99.90;;;;;;5036052;28;19928;-79
2020/12/05 06:49:28;;;;;;;;;;;0.80;99.90;;;;;;5051362;28;19917;-79
2020/12/05 06:51:53;;;;;;;;;;;0.90;99.90;;;;;;5051004;28;19921;-80
2020/12/05 06:54:20;;;;;;;;;;;1.00;99.90;;;;;;5051343;28;20339;-79
2020/12/05 06:56:46;;;;;;;;;;;1.10;99.90;;;;;;5035895;28;19921;-79
2020/12/05 06:59:22;;;;;;;;;;;1.00;99.90;;;;;;5051271;28;19923;-79
2020/12/05 07:01:48;;;;;;;;;;;1.00;99.90;;;;;;5053607;28;19917;-81
2020/12/05 07:04:20;;;;;;;;;;;1.00;99.90;;;;;;5051077;28;19963;-79
2020/12/05 07:06:46;;;;;;;;;;;1.10;99.90;;;;;;5036014;28;19917;-80
2020/12/05 07:09:12;;;;;;;;;;;1.20;99.90;;;;;;5051729;28;20300;-80
2020/12/05 07:11:39;;;;;;;;;;;1.30;99.90;;;;;;5052206;28;19917;-80
2020/12/05 07:14:05;;;;;;;;;;;1.30;99.90;;;;;;5051754;28;20285;-80
2020/12/05 07:16:38;;;;;;;;;;;1.20;99.90;;;;;;5053561;28;20273;-81
2020/12/05 07:19:03;;;;;;;;;;;1.10;99.90;;;;;;5037217;28;19917;-80
2020/12/05 07:21:30;;;;;;;;;;;1.10;99.90;;;;;;5052254;28;20376;-80
2020/12/05 07:23:55;;;;;;;;;;;1.00;99.90;;;;;;5052692;28;19924;-79
2020/12/05 07:26:21;;;;;;;;;;;1.10;99.90;;;;;;5044215;28;19921;-80
2020/12/05 07:28:48;;;;;;;;;;;1.10;99.90;;;;;;5035071;28;19956;-80
2020/12/05 07:31:15;;;;;;;;;;;1.00;99.90;;;;;;5051932;28;19928;-80
2020/12/05 07:33:44;;;;;;;;;;;1.10;99.90;;;;;;5051470;28;20369;-79
2020/12/05 07:36:11;;;;;;;;;;;1.00;99.90;;;;;;5050960;28;19921;-78
2020/12/05 07:38:37;;;;;;;;;;;1.00;99.90;;;;;;5050342;28;20336;-79
2020/12/05 07:41:10;;;;;;;;;;;1.10;99.90;;;;;;5050388;28;19967;-79
2020/12/05 07:43:37;;;;;;;;;;;1.00;99.90;;;;;;5053558;28;20011;-80
2020/12/05 07:46:05;;;;;;;;;;;1.00;99.90;;;;;;5052941;28;19925;-80
2020/12/05 07:48:30;;;;;;;;;;;1.00;99.90;;;;;;5037596;28;19928;-79
2020/12/05 07:50:56;;;;;;;;;;;0.90;99.90;;;;;;5050471;28;19921;-79
2020/12/05 07:53:23;;;;;;;;;;;1.00;99.90;;;;;;5034627;28;19964;-79
2020/12/05 07:55:48;;;;;;;;;;;1.00;99.90;;;;;;5049821;28;20380;-79
2020/12/05 07:58:15;;;;;;;;;;;1.00;99.90;;;;;;5050386;28;19924;-79
2020/12/05 08:00:41;;;;;;;;;;;1.00;99.90;;;;;;5050098;28;20015;-80
2020/12/05 08:03:19;;;;;;;;;;;1.00;99.90;;;;;;5034458;28;19929;-79
2020/12/05 08:05:50;;;;;;;;;;;1.00;99.90;;;;;;5049684;28;19927;-79
2020/12/05 08:08:17;;;;;;;;;;;1.00;99.90;;;;;;5033405;28;20011;-79
2020/12/05 08:10:43;;;;;;;;;;;1.00;99.90;;;;;;5050338;28;19944;-79
2020/12/05 08:13:19;;;;;;;;;;;1.10;99.90;;;;;;5049654;28;20511;-78
2020/12/05 08:15:46;;;;;;;;;;;1.10;99.90;;;;;;5049362;28;20016;-79
2020/12/05 08:18:13;;;;;;;;;;;1.20;99.90;;;;;;5049008;28;19917;-79
2020/12/05 08:20:42;;;;;;;;;;;1.20;99.90;;;;;;5049457;28;20377;-79
2020/12/05 08:23:23;;;;;;;;;;;1.10;99.90;;;;;;5049459;28;19917;-79
2020/12/05 08:25:49;;;;;;;;;;;1.10;99.90;;;;;;5046046;28;20023;-79
2020/12/05 08:28:17;;;;;;;;;;;1.10;99.90;;;;;;5034440;28;19917;-79
2020/12/05 08:30:44;;;;;;;;;;;1.20;99.90;;;;;;5030778;28;19987;-79
2020/12/05 08:33:11;;;;;;;;;;;1.20;99.90;;;;;;5033218;28;19921;-79
2020/12/05 08:35:37;;;;;;;;;;;1.30;99.90;;;;;;5051075;28;19921;-79
2020/12/05 08:38:03;;;;;;;;;;;1.30;99.90;;;;;;5048493;28;19928;-79
2020/12/05 08:40:29;;;;;;;;;;;1.40;99.90;;;;;;5030743;28;20012;-80
2020/12/05 08:42:55;;;;;;;;;;;1.40;99.90;;;;;;5033919;28;20392;-79
2020/12/05 08:45:21;;;;;;;;;;;1.40;99.90;;;;;;5049207;28;19927;-79
2020/12/05 08:47:48;;;;;;;;;;;1.30;99.90;;;;;;5047290;28;20319;-79
2020/12/05 08:50:23;;;;;;;;;;;1.40;99.90;;;;;;5049161;28;20353;-79
2020/12/05 08:52:51;;;;;;;;;;;1.50;99.90;;;;;;5030985;28;19921;-79
2020/12/05 08:55:20;;;;;;;;;;;1.50;99.90;;;;;;5048856;28;19959;-79
2020/12/05 08:57:51;;;;;;;;;;;1.60;99.90;;;;;;5049795;28;20323;-78
2020/12/05 09:00:19;;;;;;;;;;;1.60;99.90;;;;;;5050432;28;19917;-79
2020/12/05 09:02:44;;;;;;;;;;;1.70;99.90;;;;;;5049509;28;19928;-79
2020/12/05 09:05:10;;;;;;;;;;;1.70;99.90;;;;;;5050158;28;19924;-79
2020/12/05 09:07:36;;;;;;;;;;;1.70;99.90;;;;;;5035014;28;19917;-79
2020/12/05 09:10:13;;;;;;;;;;;1.80;99.90;;;;;;5049876;28;19923;-79
2020/12/05 09:12:39;;;;;;;;;;;1.80;99.90;;;;;;5050953;28;19927;-79
2020/12/05 09:15:05;;;;;;;;;;;1.80;99.90;;;;;;5034683;28;19917;-79
2020/12/05 09:17:31;;;;;;;;;;;1.80;99.90;;;;;;5035880;28;19917;-79
2020/12/05 09:20:08;;;;;;;;;;;1.80;99.90;;;;;;5052020;28;19979;-79
2020/12/05 09:22:34;;;;;;;;;;;1.80;99.90;;;;;;5046373;28;19963;-80
2020/12/05 09:25:00;;;;;;;;;;;1.90;99.90;;;;;;5047176;28;20368;-79
2020/12/05 09:27:34;;;;;;;;;;;1.90;99.90;;;;;;5028565;28;19917;-79
2020/12/05 09:29:59;;;;;;;;;;;1.90;99.90;;;;;;5053310;28;20284;-79
2020/12/05 09:32:34;;;;;;;;;;;1.90;99.90;;;;;;5053748;28;19917;-79
2020/12/05 09:35:00;;;;;;;;;;;1.90;99.90;;;;;;5040832;28;19959;-80
2020/12/05 09:37:26;;;;;;;;;;;1.90;99.90;;;;;;5054089;28;19917;-79
2020/12/05 09:39:52;;;;;;;;;;;1.90;99.90;;;;;;5053828;28;19917;-80
2020/12/05 09:42:21;;;;;;;;;;;1.90;99.90;;;;;;5052197;28;19921;-80
2020/12/05 09:44:47;;;;;;;;;;;1.90;99.90;;;;;;5037000;28;19921;-79
2020/12/05 09:47:13;;;;;;;;;;;1.90;99.90;;;;;;5053025;28;19928;-80
2020/12/05 09:49:39;;;;;;;;;;;1.90;99.90;;;;;;5021222;28;19921;-80
2020/12/05 09:52:05;;;;;;;;;;;2.00;99.90;;;;;;5051522;28;19917;-80
2020/12/05 09:54:31;;;;;;;;;;;1.90;99.90;;;;;;5036481;28;20359;-80
2020/12/05 09:56:56;;;;;;;;;;;1.90;99.90;;;;;;5049675;28;20327;-80
2020/12/05 09:59:22;;;;;;;;;;;2.00;99.90;;;;;;5052464;28;19924;-80
2020/12/05 10:01:48;;;;;;;;;;;;;;;;;;5035931;28;20269;-80
2020/12/05 10:04:16;;;;;;;;;;;;;;;;;;5036562;28;19917;-80
2020/12/05 10:06:42;;;;;;;;;;;;;;;;;;5034197;28;20043;-80
2020/12/05 10:09:08;;;;;;;;;;;;;;;;;;5034736;28;19970;-80
2020/12/05 10:11:34;;;;;;;;;;;;;;;;;;5032254;28;20004;-80
2020/12/05 10:14:00;;;;;;;;;;;;;;;;;;5046927;28;19948;-80
2020/12/05 10:16:26;;;;;;;;;;;;;;;;;;5051404;28;19947;-80
2020/12/05 10:18:52;;;;;;;;;;;2.00;99.90;;;;;;5051371;28;20361;-80
2020/12/05 10:21:18;;;;;;;;;;;2.10;99.90;;;;;;5048472;28;19986;-80
2020/12/05 10:23:43;;;;;;;;;;;2.10;99.90;;;;;;5051212;28;19917;-81
2020/12/05 10:26:09;;;;;;;;;;;2.20;99.90;;;;;;5032216;28;19925;-80
2020/12/05 10:28:35;;;;;;;;;;;2.30;99.90;;;;;;5035695;28;19925;-80
2020/12/05 10:31:00;;;;;;;;;;;2.30;99.90;;;;;;5050829;28;20008;-80
2020/12/05 10:33:26;;;;;;;;;;;2.30;99.90;;;;;;5051616;28;19917;-80
2020/12/05 10:35:52;;;;;;;;;;;2.40;99.90;;;;;;5051941;28;19988;-80
2020/12/05 10:38:18;;;;;;;;;;;2.40;99.90;;;;;;5051786;28;19921;-80
2020/12/05 10:40:44;;;;;;;;;;;2.40;99.90;;;;;;5046921;28;20452;-81
2020/12/05 10:43:09;;;;;;;;;;;2.40;99.90;;;;;;5051580;28;20373;-80
2020/12/05 10:45:35;;;;;;;;;;;2.50;99.90;;;;;;5051862;28;19921;-81
2020/12/05 10:48:01;;;;;;;;;;;2.50;99.90;;;;;;5025956;28;19917;-80
2020/12/05 10:50:26;;;;;;;;;;;2.70;99.90;;;;;;5051444;28;19968;-81
2020/12/05 10:52:53;;;;;;;;;;;2.70;99.90;;;;;;5049971;28;19917;-80
2020/12/05 10:55:18;;;;;;;;;;;2.80;99.90;;;;;;5035262;28;19928;-79
2020/12/05 10:57:44;;;;;;;;;;;2.80;99.90;;;;;;5051202;28;19921;-80
2020/12/05 11:00:10;;;;;;;;;;;3.30;99.90;;;;;;5033026;28;19991;-80
2020/12/05 11:02:35;;;;;;;;;;;3.10;99.90;;;;;;5048633;28;20384;-80
2020/12/05 11:05:01;;;;;;;;;;;3.10;99.90;;;;;;5050553;28;19921;-80
2020/12/05 11:07:26;;;;;;;;;;;2.80;99.90;;;;;;5034464;28;20015;-80
2020/12/05 11:09:53;;;;;;;;;;;3.60;99.90;;;;;;5043888;28;20300;-80
2020/12/05 11:12:19;;;;;;;;;;;3.60;99.90;;;;;;5049344;28;19921;-80
2020/12/05 11:14:45;;;;;;;;;;;;;;;;;;5051840;28;19975;-80
2020/12/05 11:17:10;;;;;;;;;;;;;;;;;;5049621;28;19996;-79
2020/12/05 11:19:36;;;;;;;;;;;;;;;;;;5048536;28;19952;-80
2020/12/05 11:22:02;;;;;;;;;;;;;;;;;;5048736;28;20011;-80
2020/12/05 11:24:28;;;;;;;;;;;;;;;;;;5050852;28;20281;-80
2020/12/05 11:26:54;;;;;;;;;;;;;;;;;;5051500;28;19905;-80
2020/12/05 11:29:20;;;;;;;;;;;;;;;;;;5033162;28;19908;-80
2020/12/05 11:31:46;;;;;;;;;;;;;;;;;;5048395;28;19913;-80
2020/12/05 11:34:12;;;;;;;;;;;;;;;;;;5051948;28;19905;-80
2020/12/05 11:36:38;;;;;;;;;;;;;;;;;;5051787;28;19913;-80
2020/12/05 11:39:04;;;;;;;;;;;;;;;;;;5052350;28;19909;-80
2020/12/05 11:41:30;;;;;;;;;;;;;;;;;;5050751;28;20387;-80
2020/12/05 11:43:56;;;;;;;;;;;;;;;;;;5051603;28;20281;-80
2020/12/05 11:46:21;;;;;;;;;;;;;;;;;;5029351;28;19909;-80
2020/12/05 11:48:48;;;;;;;;;;;3.40;99.90;;;;;;5047473;28;19905;-80
2020/12/05 11:51:14;;;;;;;;;;;4.10;99.90;;;;;;5042147;28;19921;-80
2020/12/05 11:53:39;;;;;;;;;;;4.10;99.90;;;;;;5050892;28;20660;-79
2020/12/05 11:56:05;;;;;;;;;;;4.10;99.90;;;;;;5047687;28;19921;-80
2020/12/05 11:58:31;;;;;;;;;;;3.90;99.90;;;;;;5035927;28;19924;-79
2020/12/05 12:00:56;;;;;;;;;;;3.80;99.90;;;;;;5047973;28;19916;-80
2020/12/05 12:03:22;;;;;;;;;;;3.80;99.90;;;;;;5034117;28;19921;-80
2020/12/05 12:05:48;;;;;;;;;;;3.90;99.90;;;;;;5049574;28;19925;-79
2020/12/05 12:08:14;;;;;;;;;;;3.90;99.90;;;;;;5051257;28;19921;-80
2020/12/05 12:10:40;;;;;;;;;;;4.00;99.90;;;;;;5036353;28;19921;-79
2020/12/05 12:13:05;;;;;;;;;;;4.00;99.90;;;;;;5035093;28;19917;-79
2020/12/05 12:15:31;;;;;;;;;;;4.10;99.90;;;;;;5053208;28;19917;-80
2020/12/05 12:17:57;;;;;;;;;;;;;;;;;;5049293;28;19921;-80
2020/12/05 12:20:22;;;;;;;;;;;3.60;99.90;;;;;;5051033;28;19912;-80
2020/12/05 12:22:49;;;;;;;;;;;4.30;99.90;;;;;;5049781;28;19924;-80
2020/12/05 12:25:15;;;;;;;;;;;4.30;99.90;;;;;;5053553;28;20388;-80
2020/12/05 12:27:40;;;;;;;;;;;4.40;99.90;;;;;;5050827;28;19921;-81
2020/12/05 12:30:06;;;;;;;;;;;4.40;99.90;;;;;;5032687;28;20003;-79
2020/12/05 12:32:31;;;;;;;;;;;4.40;99.90;;;;;;5032915;28;19916;-79
2020/12/05 12:34:57;;;;;;;;;;;4.30;99.90;;;;;;5043056;28;19917;-79
2020/12/05 12:37:23;;;;;;;;;;;4.30;99.90;;;;;;5048557;28;20281;-80
2020/12/05 12:39:49;;;;;;;;;;;4.40;99.90;;;;;;5048824;28;20288;-80
2020/12/05 12:42:15;;;;;;;;;;;4.40;99.90;;;;;;5048027;28;20369;-80
2020/12/05 12:44:41;;;;;;;;;;;4.30;99.90;;;;;;5049429;28;19967;-81
2020/12/05 12:47:12;;;;;;;;;;;4.30;99.90;;;;;;5049788;28;19924;-83
2020/12/05 12:49:38;;;;;;;;;;;4.30;99.90;;;;;;5048864;28;19963;-83
2020/12/05 12:52:04;;;;;;;;;;;4.40;99.90;;;;;;5042305;28;19921;-83
2020/12/05 12:54:30;;;;;;;;;;;4.40;99.90;;;;;;5032965;28;19920;-83
2020/12/05 12:56:56;;;;;;;;;;;4.40;99.90;;;;;;5049163;28;20464;-83
2020/12/05 12:59:23;;;;;;;;;;;4.40;99.90;;;;;;5048396;28;19960;-83
2020/12/05 13:01:50;;;;;;;;;;;4.40;99.90;;;;;;5044925;28;20044;-80
2020/12/05 13:04:16;;;;;;;;;;;4.40;99.90;;;;;;5026925;28;19921;-80
2020/12/05 13:06:41;;;;;;;;;;;4.40;99.90;;;;;;5035450;28;20435;-81
2020/12/05 13:09:09;;;;;;;;;;;4.30;99.90;;;;;;5053579;28;19917;-80
2020/12/05 13:11:34;;;;;;;;;;;4.30;99.90;;;;;;5053287;28;19967;-80
2020/12/05 13:14:01;;;;;;;;;;;4.30;99.90;;;;;;5034719;28;20335;-81
2020/12/05 13:16:27;;;;;;;;;;;4.30;99.90;;;;;;5021250;28;19921;-80
2020/12/05 13:18:52;;;;;;;;;;;4.30;99.90;;;;;;5050524;28;19964;-80
2020/12/05 13:21:18;;;;;;;;;;;4.30;99.90;;;;;;5054915;28;19987;-79
2020/12/05 13:23:44;;;;;;;;;;;4.30;99.90;;;;;;5054610;28;19917;-80
2020/12/05 13:26:10;;;;;;;;;;;4.30;99.90;;;;;;5054328;28;19932;-80
2020/12/05 13:28:35;;;;;;;;;;;4.30;99.90;;;;;;5050837;28;19940;-80
2020/12/05 13:31:02;;;;;;;;;;;4.20;99.90;;;;;;5033200;28;20340;-80
2020/12/05 13:33:28;;;;;;;;;;;4.10;99.90;;;;;;5045823;28;20320;-80
2020/12/05 13:35:53;;;;;;;;;;;4.00;99.90;;;;;;5055644;28;19921;-80
2020/12/05 13:38:19;;;;;;;;;;;3.90;99.90;;;;;;5055347;28;19917;-80
2020/12/05 13:40:44;;;;;;;;;;;3.80;99.90;;;;;;5054084;28;19917;-80
2020/12/05 13:43:10;;;;;;;;;;;3.80;99.90;;;;;;5052954;28;19928;-80
2020/12/05 13:45:36;;;;;;;;;;;3.80;99.90;;;;;;5053370;28;19921;-79
2020/12/05 13:48:02;;;;;;;;;;;3.80;99.90;;;;;;5053788;28;19917;-80
2020/12/05 13:50:28;;;;;;;;;;;3.70;99.90;;;;;;5053798;28;19964;-80
2020/12/05 13:52:53;;;;;;;;;;;3.80;99.90;;;;;;5053274;28;19932;-80
2020/12/05 13:55:19;;;;;;;;;;;3.80;99.90;;;;;;5053852;28;19917;-80
2020/12/05 13:57:45;;;;;;;;;;;3.80;99.90;;;;;;5049484;28;19920;-80
2020/12/05 14:00:10;;;;;;;;;;;3.80;99.90;;;;;;5037237;28;19924;-80
2020/12/05 14:02:36;;;;;;;;;;;3.80;99.90;;;;;;5053735;28;19960;-80
2020/12/05 14:05:02;;;;;;;;;;;3.70;99.90;;;;;;5048686;28;19972;-80
2020/12/05 14:07:28;;;;;;;;;;;3.70;99.90;;;;;;5030760;28;20369;-80
2020/12/05 14:09:54;;;;;;;;;;;3.60;99.90;;;;;;5033048;28;19931;-79
2020/12/05 14:12:20;;;;;;;;;;;3.60;99.90;;;;;;5044122;28;19921;-80
2020/12/05 14:14:45;;;;;;;;;;;3.60;99.90;;;;;;5050875;28;19917;-79
2020/12/05 14:17:11;;;;;;;;;;;3.60;99.90;;;;;;5035771;28;19917;-80
2020/12/05 14:19:41;;;;;;;;;;;3.70;99.90;;;;;;5052672;28;19924;-80
2020/12/05 14:22:08;;;;;;;;;;;3.80;99.90;;;;;;5045241;28;20293;-80
2020/12/05 14:24:33;;;;;;;;;;;3.80;99.90;;;;;;5052459;28;19925;-80
2020/12/05 14:26:59;;;;;;;;;;;3.80;99.90;;;;;;5045402;28;20399;-80
2020/12/05 14:29:25;;;;;;;;;;;3.80;99.90;;;;;;5035489;28;19917;-80
2020/12/05 14:31:51;;;;;;;;;;;3.70;99.90;;;;;;5036258;28;19971;-80
2020/12/05 14:34:19;;;;;;;;;;;3.80;99.90;;;;;;5052493;28;19924;-80
2020/12/05 14:36:44;;;;;;;;;;;3.80;99.90;;;;;;5045917;28;19917;-80
2020/12/05 14:39:11;;;;;;;;;;;3.80;99.90;;;;;;5049101;28;20384;-80